sensor_id;sensor_type;location;lat;lon;timestamp;P1;durP1;ratioP1;P2;durP2;ratioP2
61903;SDS011;47857;52.270;6.804;2023-03-14T00:01:10;10.80;;;2.83;;
61903;SDS011;47857;52.270;6.804;2023-03-14T00:03:45;7.45;;;2.47;;
61903;SDS011;47857;52.270;6.804;2023-03-14T00:06:11;15.43;;;2.70;;
61903;SDS011;47857;52.270;6.804;2023-03-14T00:08:38;12.60;;;2.90;;
61903;SDS011;47857;52.270;6.804;2023-03-14T00:11:07;10.55;;;2.80;;
61903;SDS011;47857;52.270;6.804;2023-03-14T00:13:37;13.13;;;3.15;;
61903;SDS011;47857;52.270;6.804;2023-03-14T00:16:06;11.82;;;3.00;;
61903;SDS011;47857;52.270;6.804;2023-03-14T00:18:35;11.15;;;2.70;;
61903;SDS011;47857;52.270;6.804;2023-03-14T00:21:01;13.73;;;3.35;;
61903;SDS011;47857;52.270;6.804;2023-03-14T00:23:28;10.75;;;2.92;;
61903;SDS011;47857;52.270;6.804;2023-03-14T00:26:01;10.68;;;2.60;;
61903;SDS011;47857;52.270;6.804;2023-03-14T00:28:28;10.23;;;2.70;;
61903;SDS011;47857;52.270;6.804;2023-03-14T00:30:54;10.20;;;2.58;;
61903;SDS011;47857;52.270;6.804;2023-03-14T00:33:20;9.45;;;2.70;;
61903;SDS011;47857;52.270;6.804;2023-03-14T00:35:55;10.43;;;2.90;;
61903;SDS011;47857;52.270;6.804;2023-03-14T00:38:22;11.77;;;2.85;;
61903;SDS011;47857;52.270;6.804;2023-03-14T00:40:49;11.65;;;2.97;;
61903;SDS011;47857;52.270;6.804;2023-03-14T00:43:16;12.43;;;2.63;;
61903;SDS011;47857;52.270;6.804;2023-03-14T00:45:42;9.38;;;2.65;;
61903;SDS011;47857;52.270;6.804;2023-03-14T00:48:07;8.52;;;2.50;;
61903;SDS011;47857;52.270;6.804;2023-03-14T00:50:33;10.52;;;2.70;;
61903;SDS011;47857;52.270;6.804;2023-03-14T00:52:58;9.38;;;2.47;;
61903;SDS011;47857;52.270;6.804;2023-03-14T00:55:24;9.23;;;2.40;;
61903;SDS011;47857;52.270;6.804;2023-03-14T00:57:50;10.30;;;2.50;;
61903;SDS011;47857;52.270;6.804;2023-03-14T01:00:16;9.85;;;2.88;;
61903;SDS011;47857;52.270;6.804;2023-03-14T01:02:41;11.15;;;2.70;;
61903;SDS011;47857;52.270;6.804;2023-03-14T01:05:07;7.93;;;2.10;;
61903;SDS011;47857;52.270;6.804;2023-03-14T01:07:36;10.80;;;2.65;;
61903;SDS011;47857;52.270;6.804;2023-03-14T01:10:05;11.95;;;2.58;;
61903;SDS011;47857;52.270;6.804;2023-03-14T01:12:31;9.07;;;2.58;;
61903;SDS011;47857;52.270;6.804;2023-03-14T01:14:57;8.88;;;2.30;;
61903;SDS011;47857;52.270;6.804;2023-03-14T01:17:23;11.20;;;2.50;;
61903;SDS011;47857;52.270;6.804;2023-03-14T01:19:49;9.57;;;2.17;;
61903;SDS011;47857;52.270;6.804;2023-03-14T01:22:14;9.52;;;1.77;;
61903;SDS011;47857;52.270;6.804;2023-03-14T01:24:40;9.15;;;2.45;;
61903;SDS011;47857;52.270;6.804;2023-03-14T01:27:05;14.13;;;2.55;;
61903;SDS011;47857;52.270;6.804;2023-03-14T01:29:31;9.15;;;2.60;;
61903;SDS011;47857;52.270;6.804;2023-03-14T01:31:56;9.43;;;2.35;;
61903;SDS011;47857;52.270;6.804;2023-03-14T01:34:22;9.75;;;2.72;;
61903;SDS011;47857;52.270;6.804;2023-03-14T01:36:48;12.45;;;2.60;;
61903;SDS011;47857;52.270;6.804;2023-03-14T01:39:14;8.23;;;2.20;;
61903;SDS011;47857;52.270;6.804;2023-03-14T01:41:40;10.07;;;2.50;;
61903;SDS011;47857;52.270;6.804;2023-03-14T01:44:09;11.50;;;2.45;;
61903;SDS011;47857;52.270;6.804;2023-03-14T01:52:00;15.32;;;4.90;;
61903;SDS011;47857;52.270;6.804;2023-03-14T01:54:33;13.35;;;5.20;;
61903;SDS011;47857;52.270;6.804;2023-03-14T01:57:07;12.50;;;3.72;;
61903;SDS011;47857;52.270;6.804;2023-03-14T01:59:36;12.68;;;4.05;;
61903;SDS011;47857;52.270;6.804;2023-03-14T02:02:02;8.70;;;3.58;;
61903;SDS011;47857;52.270;6.804;2023-03-14T02:04:34;9.10;;;3.10;;
61903;SDS011;47857;52.270;6.804;2023-03-14T02:07:12;9.57;;;2.50;;
61903;SDS011;47857;52.270;6.804;2023-03-14T02:09:50;11.32;;;2.10;;
61903;SDS011;47857;52.270;6.804;2023-03-14T02:12:22;8.13;;;2.28;;
61903;SDS011;47857;52.270;6.804;2023-03-14T02:15:03;9.23;;;2.58;;
61903;SDS011;47857;52.270;6.804;2023-03-14T02:17:42;9.00;;;2.20;;
61903;SDS011;47857;52.270;6.804;2023-03-14T02:23:06;8.57;;;2.08;;
61903;SDS011;47857;52.270;6.804;2023-03-14T02:28:12;9.52;;;2.33;;
61903;SDS011;47857;52.270;6.804;2023-03-14T02:30:41;11.88;;;2.50;;
61903;SDS011;47857;52.270;6.804;2023-03-14T02:33:10;10.88;;;2.33;;
61903;SDS011;47857;52.270;6.804;2023-03-14T02:38:18;8.43;;;2.10;;
61903;SDS011;47857;52.270;6.804;2023-03-14T02:40:54;8.30;;;1.75;;
61903;SDS011;47857;52.270;6.804;2023-03-14T02:43:20;7.13;;;1.67;;
61903;SDS011;47857;52.270;6.804;2023-03-14T02:45:52;9.02;;;1.75;;
61903;SDS011;47857;52.270;6.804;2023-03-14T02:48:21;9.32;;;2.00;;
61903;SDS011;47857;52.270;6.804;2023-03-14T02:50:53;9.82;;;1.65;;
61903;SDS011;47857;52.270;6.804;2023-03-14T02:53:21;9.95;;;1.80;;
61903;SDS011;47857;52.270;6.804;2023-03-14T02:55:49;9.60;;;1.70;;
61903;SDS011;47857;52.270;6.804;2023-03-14T02:58:18;7.82;;;1.95;;
61903;SDS011;47857;52.270;6.804;2023-03-14T03:00:47;11.43;;;1.90;;
61903;SDS011;47857;52.270;6.804;2023-03-14T03:03:13;12.55;;;2.38;;
61903;SDS011;47857;52.270;6.804;2023-03-14T03:05:39;10.57;;;1.80;;
61903;SDS011;47857;52.270;6.804;2023-03-14T03:08:06;7.55;;;1.80;;
61903;SDS011;47857;52.270;6.804;2023-03-14T03:10:32;8.88;;;1.90;;
61903;SDS011;47857;52.270;6.804;2023-03-14T03:12:58;7.88;;;1.80;;
61903;SDS011;47857;52.270;6.804;2023-03-14T03:15:25;10.00;;;2.17;;
61903;SDS011;47857;52.270;6.804;2023-03-14T03:17:51;10.73;;;2.33;;
61903;SDS011;47857;52.270;6.804;2023-03-14T03:20:17;11.77;;;2.63;;
61903;SDS011;47857;52.270;6.804;2023-03-14T03:22:42;11.45;;;2.38;;
61903;SDS011;47857;52.270;6.804;2023-03-14T03:25:08;8.00;;;2.10;;
61903;SDS011;47857;52.270;6.804;2023-03-14T03:27:34;10.43;;;2.10;;
61903;SDS011;47857;52.270;6.804;2023-03-14T03:30:01;10.13;;;2.28;;
61903;SDS011;47857;52.270;6.804;2023-03-14T03:32:31;10.48;;;2.60;;
61903;SDS011;47857;52.270;6.804;2023-03-14T03:34:57;12.23;;;2.45;;
61903;SDS011;47857;52.270;6.804;2023-03-14T03:37:22;7.07;;;2.40;;
61903;SDS011;47857;52.270;6.804;2023-03-14T03:39:49;9.23;;;2.20;;
61903;SDS011;47857;52.270;6.804;2023-03-14T03:42:16;10.27;;;2.05;;
61903;SDS011;47857;52.270;6.804;2023-03-14T03:44:41;10.10;;;1.90;;
61903;SDS011;47857;52.270;6.804;2023-03-14T03:47:09;11.60;;;2.50;;
61903;SDS011;47857;52.270;6.804;2023-03-14T03:49:35;9.25;;;1.85;;
61903;SDS011;47857;52.270;6.804;2023-03-14T03:52:01;8.63;;;2.10;;
61903;SDS011;47857;52.270;6.804;2023-03-14T03:54:26;12.50;;;2.10;;
61903;SDS011;47857;52.270;6.804;2023-03-14T03:56:53;9.88;;;1.98;;
61903;SDS011;47857;52.270;6.804;2023-03-14T03:59:19;9.85;;;2.28;;
61903;SDS011;47857;52.270;6.804;2023-03-14T04:01:45;13.98;;;2.40;;
61903;SDS011;47857;52.270;6.804;2023-03-14T04:04:10;11.38;;;1.90;;
61903;SDS011;47857;52.270;6.804;2023-03-14T04:06:36;11.27;;;2.17;;
61903;SDS011;47857;52.270;6.804;2023-03-14T04:09:02;9.60;;;2.08;;
61903;SDS011;47857;52.270;6.804;2023-03-14T04:11:43;9.23;;;1.80;;
61903;SDS011;47857;52.270;6.804;2023-03-14T04:14:34;14.38;;;2.28;;
61903;SDS011;47857;52.270;6.804;2023-03-14T04:17:14;7.50;;;1.70;;
61903;SDS011;47857;52.270;6.804;2023-03-14T04:19:40;7.03;;;1.45;;
61903;SDS011;47857;52.270;6.804;2023-03-14T04:22:08;10.95;;;1.88;;
61903;SDS011;47857;52.270;6.804;2023-03-14T04:24:43;15.48;;;2.60;;
61903;SDS011;47857;52.270;6.804;2023-03-14T04:27:08;12.07;;;1.80;;
61903;SDS011;47857;52.270;6.804;2023-03-14T04:29:34;11.20;;;2.10;;
61903;SDS011;47857;52.270;6.804;2023-03-14T04:32:00;7.72;;;2.00;;
61903;SDS011;47857;52.270;6.804;2023-03-14T04:34:25;8.30;;;1.80;;
61903;SDS011;47857;52.270;6.804;2023-03-14T04:36:54;10.00;;;1.90;;
61903;SDS011;47857;52.270;6.804;2023-03-14T04:39:34;9.80;;;2.00;;
61903;SDS011;47857;52.270;6.804;2023-03-14T04:42:09;12.13;;;2.28;;
61903;SDS011;47857;52.270;6.804;2023-03-14T04:44:36;10.63;;;2.33;;
61903;SDS011;47857;52.270;6.804;2023-03-14T04:47:02;9.15;;;2.25;;
61903;SDS011;47857;52.270;6.804;2023-03-14T04:49:28;10.77;;;2.03;;
61903;SDS011;47857;52.270;6.804;2023-03-14T04:51:54;8.45;;;2.00;;
61903;SDS011;47857;52.270;6.804;2023-03-14T04:54:22;9.88;;;2.20;;
61903;SDS011;47857;52.270;6.804;2023-03-14T04:56:51;10.52;;;2.35;;
61903;SDS011;47857;52.270;6.804;2023-03-14T04:59:17;12.75;;;2.60;;
61903;SDS011;47857;52.270;6.804;2023-03-14T05:01:43;13.60;;;2.08;;
61903;SDS011;47857;52.270;6.804;2023-03-14T05:04:36;12.23;;;1.95;;
61903;SDS011;47857;52.270;6.804;2023-03-14T05:07:33;9.38;;;2.10;;
61903;SDS011;47857;52.270;6.804;2023-03-14T05:10:17;10.82;;;2.38;;
61903;SDS011;47857;52.270;6.804;2023-03-14T05:13:06;12.30;;;2.00;;
61903;SDS011;47857;52.270;6.804;2023-03-14T05:16:07;8.18;;;2.10;;
61903;SDS011;47857;52.270;6.804;2023-03-14T05:18:54;16.15;;;2.33;;
61903;SDS011;47857;52.270;6.804;2023-03-14T05:21:55;10.10;;;2.00;;
61903;SDS011;47857;52.270;6.804;2023-03-14T05:24:42;11.13;;;2.58;;
61903;SDS011;47857;52.270;6.804;2023-03-14T05:27:16;10.82;;;2.20;;
61903;SDS011;47857;52.270;6.804;2023-03-14T05:29:51;10.35;;;2.03;;
61903;SDS011;47857;52.270;6.804;2023-03-14T05:32:26;7.93;;;1.98;;
61903;SDS011;47857;52.270;6.804;2023-03-14T05:35:02;12.52;;;1.98;;
61903;SDS011;47857;52.270;6.804;2023-03-14T05:37:46;8.95;;;1.92;;
61903;SDS011;47857;52.270;6.804;2023-03-14T05:40:27;11.30;;;2.00;;
61903;SDS011;47857;52.270;6.804;2023-03-14T05:43:03;12.23;;;1.95;;
61903;SDS011;47857;52.270;6.804;2023-03-14T05:45:47;16.38;;;2.50;;
61903;SDS011;47857;52.270;6.804;2023-03-14T05:48:31;11.43;;;2.08;;
61903;SDS011;47857;52.270;6.804;2023-03-14T05:51:17;9.75;;;2.13;;
61903;SDS011;47857;52.270;6.804;2023-03-14T05:56:42;8.40;;;1.95;;
61903;SDS011;47857;52.270;6.804;2023-03-14T05:59:33;10.35;;;1.85;;
61903;SDS011;47857;52.270;6.804;2023-03-14T06:02:05;11.30;;;2.13;;
61903;SDS011;47857;52.270;6.804;2023-03-14T06:04:42;13.85;;;2.60;;
61903;SDS011;47857;52.270;6.804;2023-03-14T06:07:07;10.07;;;1.90;;
61903;SDS011;47857;52.270;6.804;2023-03-14T06:09:33;12.07;;;1.83;;
61903;SDS011;47857;52.270;6.804;2023-03-14T06:12:01;11.73;;;1.80;;
61903;SDS011;47857;52.270;6.804;2023-03-14T06:14:30;11.25;;;1.80;;
61903;SDS011;47857;52.270;6.804;2023-03-14T06:16:55;8.18;;;1.55;;
61903;SDS011;47857;52.270;6.804;2023-03-14T06:19:23;11.98;;;1.80;;
61903;SDS011;47857;52.270;6.804;2023-03-14T06:21:50;10.88;;;2.70;;
61903;SDS011;47857;52.270;6.804;2023-03-14T06:24:15;10.68;;;4.68;;
61903;SDS011;47857;52.270;6.804;2023-03-14T06:26:45;12.43;;;3.78;;
61903;SDS011;47857;52.270;6.804;2023-03-14T06:29:11;11.80;;;2.97;;
61903;SDS011;47857;52.270;6.804;2023-03-14T06:31:38;11.60;;;3.47;;
61903;SDS011;47857;52.270;6.804;2023-03-14T06:34:05;14.38;;;4.05;;
61903;SDS011;47857;52.270;6.804;2023-03-14T06:36:31;9.70;;;2.25;;
61903;SDS011;47857;52.270;6.804;2023-03-14T06:38:57;6.70;;;1.65;;
61903;SDS011;47857;52.270;6.804;2023-03-14T06:41:24;5.70;;;1.35;;
61903;SDS011;47857;52.270;6.804;2023-03-14T06:43:51;9.35;;;2.10;;
61903;SDS011;47857;52.270;6.804;2023-03-14T06:46:19;7.65;;;1.98;;
61903;SDS011;47857;52.270;6.804;2023-03-14T06:48:44;8.77;;;1.85;;
61903;SDS011;47857;52.270;6.804;2023-03-14T06:51:11;7.53;;;1.75;;
61903;SDS011;47857;52.270;6.804;2023-03-14T06:53:36;7.53;;;1.70;;
61903;SDS011;47857;52.270;6.804;2023-03-14T06:56:02;9.70;;;1.73;;
61903;SDS011;47857;52.270;6.804;2023-03-14T06:58:30;6.53;;;2.05;;
61903;SDS011;47857;52.270;6.804;2023-03-14T07:00:55;4.85;;;1.60;;
61903;SDS011;47857;52.270;6.804;2023-03-14T07:03:25;8.82;;;1.77;;
61903;SDS011;47857;52.270;6.804;2023-03-14T07:05:53;6.95;;;2.05;;
61903;SDS011;47857;52.270;6.804;2023-03-14T07:08:19;6.30;;;1.90;;
61903;SDS011;47857;52.270;6.804;2023-03-14T07:10:44;7.75;;;2.10;;
61903;SDS011;47857;52.270;6.804;2023-03-14T07:13:10;7.82;;;1.90;;
61903;SDS011;47857;52.270;6.804;2023-03-14T07:15:47;7.82;;;1.80;;
61903;SDS011;47857;52.270;6.804;2023-03-14T07:18:13;6.20;;;1.80;;
61903;SDS011;47857;52.270;6.804;2023-03-14T07:20:38;6.30;;;2.00;;
61903;SDS011;47857;52.270;6.804;2023-03-14T07:23:06;6.53;;;1.92;;
61903;SDS011;47857;52.270;6.804;2023-03-14T07:25:39;8.82;;;2.42;;
61903;SDS011;47857;52.270;6.804;2023-03-14T07:28:04;6.60;;;1.80;;
61903;SDS011;47857;52.270;6.804;2023-03-14T07:30:30;5.35;;;1.73;;
61903;SDS011;47857;52.270;6.804;2023-03-14T07:32:58;4.50;;;1.83;;
61903;SDS011;47857;52.270;6.804;2023-03-14T07:35:24;7.10;;;2.00;;
61903;SDS011;47857;52.270;6.804;2023-03-14T07:37:51;7.80;;;2.03;;
61903;SDS011;47857;52.270;6.804;2023-03-14T07:40:22;5.07;;;2.10;;
61903;SDS011;47857;52.270;6.804;2023-03-14T07:42:48;7.38;;;2.00;;
61903;SDS011;47857;52.270;6.804;2023-03-14T07:45:27;6.65;;;2.15;;
61903;SDS011;47857;52.270;6.804;2023-03-14T07:47:52;7.70;;;2.08;;
61903;SDS011;47857;52.270;6.804;2023-03-14T07:50:22;7.13;;;2.40;;
61903;SDS011;47857;52.270;6.804;2023-03-14T07:52:49;8.10;;;2.63;;
61903;SDS011;47857;52.270;6.804;2023-03-14T07:55:14;4.75;;;2.25;;
61903;SDS011;47857;52.270;6.804;2023-03-14T07:57:40;6.00;;;2.70;;
61903;SDS011;47857;52.270;6.804;2023-03-14T08:00:06;6.65;;;2.60;;
61903;SDS011;47857;52.270;6.804;2023-03-14T08:02:38;5.68;;;2.58;;
61903;SDS011;47857;52.270;6.804;2023-03-14T08:05:04;7.50;;;2.75;;
61903;SDS011;47857;52.270;6.804;2023-03-14T08:07:29;6.53;;;2.50;;
61903;SDS011;47857;52.270;6.804;2023-03-14T08:09:55;6.20;;;2.50;;
61903;SDS011;47857;52.270;6.804;2023-03-14T08:12:20;5.88;;;2.60;;
61903;SDS011;47857;52.270;6.804;2023-03-14T08:14:46;6.30;;;3.00;;
61903;SDS011;47857;52.270;6.804;2023-03-14T08:17:11;7.43;;;3.00;;
61903;SDS011;47857;52.270;6.804;2023-03-14T08:19:37;5.47;;;2.08;;
61903;SDS011;47857;52.270;6.804;2023-03-14T08:22:02;3.03;;;0.80;;
61903;SDS011;47857;52.270;6.804;2023-03-14T08:24:28;1.67;;;0.65;;
61903;SDS011;47857;52.270;6.804;2023-03-14T08:26:54;1.95;;;0.50;;
61903;SDS011;47857;52.270;6.804;2023-03-14T08:29:19;0.77;;;0.40;;
61903;SDS011;47857;52.270;6.804;2023-03-14T08:31:45;0.80;;;0.40;;
61903;SDS011;47857;52.270;6.804;2023-03-14T08:34:10;0.85;;;0.30;;
61903;SDS011;47857;52.270;6.804;2023-03-14T08:36:36;1.55;;;0.50;;
61903;SDS011;47857;52.270;6.804;2023-03-14T08:39:01;2.22;;;0.50;;
61903;SDS011;47857;52.270;6.804;2023-03-14T08:41:28;1.58;;;0.60;;
61903;SDS011;47857;52.270;6.804;2023-03-14T08:43:54;3.88;;;0.70;;
61903;SDS011;47857;52.270;6.804;2023-03-14T08:46:20;1.95;;;0.80;;
61903;SDS011;47857;52.270;6.804;2023-03-14T08:48:45;3.58;;;0.75;;
61903;SDS011;47857;52.270;6.804;2023-03-14T08:51:12;2.45;;;0.70;;
61903;SDS011;47857;52.270;6.804;2023-03-14T08:53:39;4.25;;;0.90;;
61903;SDS011;47857;52.270;6.804;2023-03-14T08:56:05;3.40;;;0.85;;
61903;SDS011;47857;52.270;6.804;2023-03-14T08:58:31;3.83;;;1.02;;
61903;SDS011;47857;52.270;6.804;2023-03-14T09:00:58;3.30;;;0.88;;
61903;SDS011;47857;52.270;6.804;2023-03-14T09:03:23;3.47;;;0.60;;
61903;SDS011;47857;52.270;6.804;2023-03-14T09:05:50;5.20;;;1.08;;
61903;SDS011;47857;52.270;6.804;2023-03-14T09:08:16;1.45;;;0.50;;
61903;SDS011;47857;52.270;6.804;2023-03-14T09:10:42;4.03;;;1.27;;
61903;SDS011;47857;52.270;6.804;2023-03-14T09:13:07;1.98;;;0.55;;
61903;SDS011;47857;52.270;6.804;2023-03-14T09:15:33;4.38;;;1.27;;
61903;SDS011;47857;52.270;6.804;2023-03-14T09:17:58;4.35;;;0.50;;
61903;SDS011;47857;52.270;6.804;2023-03-14T09:20:24;1.20;;;0.20;;
61903;SDS011;47857;52.270;6.804;2023-03-14T09:22:50;2.75;;;0.30;;
61903;SDS011;47857;52.270;6.804;2023-03-14T09:25:15;2.45;;;0.45;;
61903;SDS011;47857;52.270;6.804;2023-03-14T09:27:41;2.47;;;0.30;;
61903;SDS011;47857;52.270;6.804;2023-03-14T09:30:07;4.05;;;0.57;;
61903;SDS011;47857;52.270;6.804;2023-03-14T09:32:33;3.33;;;0.60;;
61903;SDS011;47857;52.270;6.804;2023-03-14T09:34:58;3.58;;;0.47;;
61903;SDS011;47857;52.270;6.804;2023-03-14T09:37:24;1.55;;;0.30;;
61903;SDS011;47857;52.270;6.804;2023-03-14T09:39:49;1.63;;;0.30;;
61903;SDS011;47857;52.270;6.804;2023-03-14T09:42:16;1.77;;;0.30;;
61903;SDS011;47857;52.270;6.804;2023-03-14T09:44:51;3.03;;;0.55;;
61903;SDS011;47857;52.270;6.804;2023-03-14T09:47:20;1.25;;;0.30;;
61903;SDS011;47857;52.270;6.804;2023-03-14T09:49:45;0.95;;;0.20;;
61903;SDS011;47857;52.270;6.804;2023-03-14T09:52:13;2.50;;;0.35;;
61903;SDS011;47857;52.270;6.804;2023-03-14T09:54:44;1.35;;;0.30;;
61903;SDS011;47857;52.270;6.804;2023-03-14T09:57:13;2.85;;;0.30;;
61903;SDS011;47857;52.270;6.804;2023-03-14T09:59:42;0.85;;;0.28;;
61903;SDS011;47857;52.270;6.804;2023-03-14T10:02:17;1.25;;;0.30;;
61903;SDS011;47857;52.270;6.804;2023-03-14T10:04:44;1.95;;;0.32;;
61903;SDS011;47857;52.270;6.804;2023-03-14T10:07:17;2.38;;;0.80;;
61903;SDS011;47857;52.270;6.804;2023-03-14T10:09:45;4.43;;;0.45;;
61903;SDS011;47857;52.270;6.804;2023-03-14T10:12:13;3.92;;;0.70;;
61903;SDS011;47857;52.270;6.804;2023-03-14T10:14:50;4.50;;;0.50;;
61903;SDS011;47857;52.270;6.804;2023-03-14T10:17:18;3.47;;;0.45;;
61903;SDS011;47857;52.270;6.804;2023-03-14T10:19:51;1.52;;;0.43;;
61903;SDS011;47857;52.270;6.804;2023-03-14T10:22:18;5.05;;;0.60;;
61903;SDS011;47857;52.270;6.804;2023-03-14T10:24:51;6.40;;;0.65;;
61903;SDS011;47857;52.270;6.804;2023-03-14T10:27:20;2.83;;;0.60;;
61903;SDS011;47857;52.270;6.804;2023-03-14T10:29:54;2.90;;;0.80;;
61903;SDS011;47857;52.270;6.804;2023-03-14T10:32:21;7.38;;;0.95;;
61903;SDS011;47857;52.270;6.804;2023-03-14T10:35:03;5.05;;;0.75;;
61903;SDS011;47857;52.270;6.804;2023-03-14T10:37:31;5.47;;;0.80;;
61903;SDS011;47857;52.270;6.804;2023-03-14T10:39:59;5.95;;;0.88;;
61903;SDS011;47857;52.270;6.804;2023-03-14T10:42:32;7.68;;;1.50;;
61903;SDS011;47857;52.270;6.804;2023-03-14T10:45:07;5.57;;;1.20;;
61903;SDS011;47857;52.270;6.804;2023-03-14T10:47:51;11.38;;;1.65;;
61903;SDS011;47857;52.270;6.804;2023-03-14T10:52:52;12.30;;;1.70;;
61903;SDS011;47857;52.270;6.804;2023-03-14T10:55:18;10.77;;;1.60;;
61903;SDS011;47857;52.270;6.804;2023-03-14T10:57:44;11.45;;;1.80;;
61903;SDS011;47857;52.270;6.804;2023-03-14T11:00:22;10.57;;;1.67;;
61903;SDS011;47857;52.270;6.804;2023-03-14T11:05:20;11.57;;;2.00;;
61903;SDS011;47857;52.270;6.804;2023-03-14T11:07:49;9.13;;;1.63;;
61903;SDS011;47857;52.270;6.804;2023-03-14T11:10:39;14.75;;;2.05;;
61903;SDS011;47857;52.270;6.804;2023-03-14T11:13:11;9.60;;;1.80;;
61903;SDS011;47857;52.270;6.804;2023-03-14T11:20:52;15.77;;;2.45;;
61903;SDS011;47857;52.270;6.804;2023-03-14T11:23:22;13.70;;;2.25;;
61903;SDS011;47857;52.270;6.804;2023-03-14T11:28:37;21.30;;;2.95;;
61903;SDS011;47857;52.270;6.804;2023-03-14T11:33:39;19.88;;;2.95;;
61903;SDS011;47857;52.270;6.804;2023-03-14T11:36:20;16.77;;;3.00;;
61903;SDS011;47857;52.270;6.804;2023-03-14T11:38:50;20.98;;;2.90;;
61903;SDS011;47857;52.270;6.804;2023-03-14T11:41:23;24.38;;;4.03;;
61903;SDS011;47857;52.270;6.804;2023-03-14T11:43:59;26.58;;;4.38;;
61903;SDS011;47857;52.270;6.804;2023-03-14T11:46:28;27.33;;;3.75;;
61903;SDS011;47857;52.270;6.804;2023-03-14T11:51:35;17.50;;;2.97;;
61903;SDS011;47857;52.270;6.804;2023-03-14T11:58:57;22.00;;;2.70;;
61903;SDS011;47857;52.270;6.804;2023-03-14T12:01:27;19.88;;;2.55;;
61903;SDS011;47857;52.270;6.804;2023-03-14T12:04:43;31.63;;;3.50;;
61903;SDS011;47857;52.270;6.804;2023-03-14T12:06:48;20.00;;;3.08;;
61903;SDS011;47857;52.270;6.804;2023-03-14T12:09:15;28.80;;;3.53;;
61903;SDS011;47857;52.270;6.804;2023-03-14T12:14:43;18.95;;;2.83;;
61903;SDS011;47857;52.270;6.804;2023-03-14T12:20:15;16.48;;;2.47;;
61903;SDS011;47857;52.270;6.804;2023-03-14T12:22:54;25.00;;;3.38;;
61903;SDS011;47857;52.270;6.804;2023-03-14T12:35:47;15.30;;;1.90;;
61903;SDS011;47857;52.270;6.804;2023-03-14T12:38:15;13.45;;;2.30;;
61903;SDS011;47857;52.270;6.804;2023-03-14T12:40:57;13.48;;;2.20;;
61903;SDS011;47857;52.270;6.804;2023-03-14T12:43:42;15.95;;;2.28;;
61903;SDS011;47857;52.270;6.804;2023-03-14T12:48:46;18.15;;;2.60;;
61903;SDS011;47857;52.270;6.804;2023-03-14T12:51:15;15.00;;;2.85;;
61903;SDS011;47857;52.270;6.804;2023-03-14T12:56:35;13.20;;;2.50;;
61903;SDS011;47857;52.270;6.804;2023-03-14T13:02:37;18.40;;;2.42;;
61903;SDS011;47857;52.270;6.804;2023-03-14T13:12:38;10.85;;;1.88;;
61903;SDS011;47857;52.270;6.804;2023-03-14T13:15:33;12.80;;;2.85;;
61903;SDS011;47857;52.270;6.804;2023-03-14T13:18:08;12.25;;;2.03;;
61903;SDS011;47857;52.270;6.804;2023-03-14T13:20:37;12.77;;;1.77;;
61903;SDS011;47857;52.270;6.804;2023-03-14T13:23:18;10.55;;;1.75;;
61903;SDS011;47857;52.270;6.804;2023-03-14T13:25:44;12.65;;;2.00;;
61903;SDS011;47857;52.270;6.804;2023-03-14T13:28:11;11.40;;;1.90;;
61903;SDS011;47857;52.270;6.804;2023-03-14T13:30:41;11.85;;;1.63;;
61903;SDS011;47857;52.270;6.804;2023-03-14T13:33:11;12.98;;;2.03;;
61903;SDS011;47857;52.270;6.804;2023-03-14T13:35:45;9.70;;;1.63;;
61903;SDS011;47857;52.270;6.804;2023-03-14T13:38:31;6.32;;;1.30;;
61903;SDS011;47857;52.270;6.804;2023-03-14T13:40:58;5.20;;;1.20;;
61903;SDS011;47857;52.270;6.804;2023-03-14T13:46:06;7.03;;;1.20;;
61903;SDS011;47857;52.270;6.804;2023-03-14T13:48:33;5.90;;;1.25;;
61903;SDS011;47857;52.270;6.804;2023-03-14T13:51:05;8.63;;;1.48;;
61903;SDS011;47857;52.270;6.804;2023-03-14T13:53:32;10.55;;;1.40;;
61903;SDS011;47857;52.270;6.804;2023-03-14T13:56:08;8.82;;;1.30;;
61903;SDS011;47857;52.270;6.804;2023-03-14T13:58:34;7.30;;;1.15;;
61903;SDS011;47857;52.270;6.804;2023-03-14T14:01:06;6.13;;;1.15;;
61903;SDS011;47857;52.270;6.804;2023-03-14T14:03:38;7.80;;;1.35;;
61903;SDS011;47857;52.270;6.804;2023-03-14T14:06:06;10.35;;;1.52;;
61903;SDS011;47857;52.270;6.804;2023-03-14T14:08:36;6.57;;;1.27;;
61903;SDS011;47857;52.270;6.804;2023-03-14T14:11:05;8.90;;;1.40;;
61903;SDS011;47857;52.270;6.804;2023-03-14T14:13:31;8.98;;;1.50;;
61903;SDS011;47857;52.270;6.804;2023-03-14T14:15:58;8.10;;;1.35;;
61903;SDS011;47857;52.270;6.804;2023-03-14T14:18:25;9.48;;;1.40;;
61903;SDS011;47857;52.270;6.804;2023-03-14T14:20:52;8.40;;;1.38;;
61903;SDS011;47857;52.270;6.804;2023-03-14T14:23:21;10.02;;;1.60;;
61903;SDS011;47857;52.270;6.804;2023-03-14T14:25:51;11.90;;;1.75;;
61903;SDS011;47857;52.270;6.804;2023-03-14T14:28:28;12.60;;;1.90;;
61903;SDS011;47857;52.270;6.804;2023-03-14T14:30:59;11.13;;;1.65;;
61903;SDS011;47857;52.270;6.804;2023-03-14T14:33:30;11.60;;;1.77;;
61903;SDS011;47857;52.270;6.804;2023-03-14T14:36:03;12.13;;;1.80;;
61903;SDS011;47857;52.270;6.804;2023-03-14T14:38:29;7.10;;;1.30;;
61903;SDS011;47857;52.270;6.804;2023-03-14T14:40:58;7.63;;;1.50;;
61903;SDS011;47857;52.270;6.804;2023-03-14T14:43:26;7.05;;;1.73;;
61903;SDS011;47857;52.270;6.804;2023-03-14T14:45:53;6.95;;;1.40;;
61903;SDS011;47857;52.270;6.804;2023-03-14T14:48:21;4.55;;;0.98;;
61903;SDS011;47857;52.270;6.804;2023-03-14T14:51:09;6.25;;;1.25;;
61903;SDS011;47857;52.270;6.804;2023-03-14T14:53:38;5.97;;;0.98;;
61903;SDS011;47857;52.270;6.804;2023-03-14T14:56:16;4.93;;;0.85;;
61903;SDS011;47857;52.270;6.804;2023-03-14T14:58:44;7.20;;;1.15;;
61903;SDS011;47857;52.270;6.804;2023-03-14T15:01:12;7.38;;;1.13;;
61903;SDS011;47857;52.270;6.804;2023-03-14T15:03:38;8.10;;;1.23;;
61903;SDS011;47857;52.270;6.804;2023-03-14T15:06:07;6.32;;;1.23;;
61903;SDS011;47857;52.270;6.804;2023-03-14T15:08:34;6.78;;;1.40;;
61903;SDS011;47857;52.270;6.804;2023-03-14T15:10:59;8.98;;;1.50;;
61903;SDS011;47857;52.270;6.804;2023-03-14T15:13:25;6.28;;;1.17;;
61903;SDS011;47857;52.270;6.804;2023-03-14T15:15:50;10.10;;;1.50;;
61903;SDS011;47857;52.270;6.804;2023-03-14T15:18:25;9.50;;;1.30;;
61903;SDS011;47857;52.270;6.804;2023-03-14T15:20:54;10.68;;;1.45;;
61903;SDS011;47857;52.270;6.804;2023-03-14T15:23:20;8.45;;;1.60;;
61903;SDS011;47857;52.270;6.804;2023-03-14T15:25:46;6.22;;;1.58;;
61903;SDS011;47857;52.270;6.804;2023-03-14T15:28:13;8.38;;;1.55;;
61903;SDS011;47857;52.270;6.804;2023-03-14T15:30:41;9.18;;;2.05;;
61903;SDS011;47857;52.270;6.804;2023-03-14T15:33:06;8.55;;;1.65;;
61903;SDS011;47857;52.270;6.804;2023-03-14T15:35:34;11.48;;;1.60;;
61903;SDS011;47857;52.270;6.804;2023-03-14T15:38:01;8.40;;;1.15;;
61903;SDS011;47857;52.270;6.804;2023-03-14T15:40:26;8.55;;;1.40;;
61903;SDS011;47857;52.270;6.804;2023-03-14T15:42:52;9.23;;;1.50;;
61903;SDS011;47857;52.270;6.804;2023-03-14T15:45:17;10.43;;;1.45;;
61903;SDS011;47857;52.270;6.804;2023-03-14T15:47:43;9.27;;;1.65;;
61903;SDS011;47857;52.270;6.804;2023-03-14T15:50:09;11.77;;;3.28;;
61903;SDS011;47857;52.270;6.804;2023-03-14T15:52:35;11.85;;;4.03;;
61903;SDS011;47857;52.270;6.804;2023-03-14T15:55:01;8.93;;;1.80;;
61903;SDS011;47857;52.270;6.804;2023-03-14T15:57:27;5.43;;;1.50;;
61903;SDS011;47857;52.270;6.804;2023-03-14T15:59:52;12.85;;;2.50;;
61903;SDS011;47857;52.270;6.804;2023-03-14T16:02:18;6.82;;;1.40;;
61903;SDS011;47857;52.270;6.804;2023-03-14T16:04:43;7.53;;;1.17;;
61903;SDS011;47857;52.270;6.804;2023-03-14T16:07:09;6.65;;;1.40;;
61903;SDS011;47857;52.270;6.804;2023-03-14T16:09:35;9.48;;;1.73;;
61903;SDS011;47857;52.270;6.804;2023-03-14T16:12:00;8.27;;;1.98;;